sensor_id;sensor_type;location;lat;lon;timestamp;temperature;humidity
43338;DHT22;28933;52.492;13.434;2023-07-31T00:01:42;18.50;99.90
43338;DHT22;28933;52.492;13.434;2023-07-31T00:04:28;18.50;99.90
43338;DHT22;28933;52.492;13.434;2023-07-31T00:07:14;18.50;99.90
43338;DHT22;28933;52.492;13.434;2023-07-31T00:10:00;18.40;99.90
43338;DHT22;28933;52.492;13.434;2023-07-31T00:12:46;18.40;99.90
43338;DHT22;28933;52.492;13.434;2023-07-31T00:15:32;18.40;99.90
43338;DHT22;28933;52.492;13.434;2023-07-31T00:18:18;18.30;99.90
43338;DHT22;28933;52.492;13.434;2023-07-31T00:21:04;18.30;99.90
43338;DHT22;28933;52.492;13.434;2023-07-31T00:23:50;18.20;99.90
43338;DHT22;28933;52.492;13.434;2023-07-31T00:26:36;18.20;99.90
43338;DHT22;28933;52.492;13.434;2023-07-31T00:29:22;18.20;99.90
43338;DHT22;28933;52.492;13.434;2023-07-31T00:32:08;18.10;99.90
43338;DHT22;28933;52.492;13.434;2023-07-31T00:34:54;18.10;99.90
43338;DHT22;28933;52.492;13.434;2023-07-31T00:37:40;18.10;99.90
43338;DHT22;28933;52.492;13.434;2023-07-31T00:40:26;18.00;99.90
43338;DHT22;28933;52.492;13.434;2023-07-31T00:43:12;18.00;99.90
43338;DHT22;28933;52.492;13.434;2023-07-31T00:45:58;18.00;99.90
43338;DHT22;28933;52.492;13.434;2023-07-31T00:48:43;18.00;99.90
43338;DHT22;28933;52.492;13.434;2023-07-31T00:51:30;18.00;99.90
43338;DHT22;28933;52.492;13.434;2023-07-31T00:54:16;17.90;99.90
43338;DHT22;28933;52.492;13.434;2023-07-31T00:57:02;17.90;99.90
43338;DHT22;28933;52.492;13.434;2023-07-31T00:59:48;17.90;99.90
43338;DHT22;28933;52.492;13.434;2023-07-31T01:02:35;17.90;99.90
43338;DHT22;28933;52.492;13.434;2023-07-31T01:05:29;17.90;99.90
43338;DHT22;28933;52.492;13.434;2023-07-31T01:08:29;17.90;99.90
43338;DHT22;28933;52.492;13.434;2023-07-31T01:11:29;17.90;99.90
43338;DHT22;28933;52.492;13.434;2023-07-31T01:14:16;18.00;99.90
43338;DHT22;28933;52.492;13.434;2023-07-31T01:17:01;18.00;99.90
43338;DHT22;28933;52.492;13.434;2023-07-31T01:19:48;18.00;99.90
43338;DHT22;28933;52.492;13.434;2023-07-31T01:22:51;18.00;99.90
43338;DHT22;28933;52.492;13.434;2023-07-31T01:31:35;18.00;99.90
43338;DHT22;28933;52.492;13.434;2023-07-31T01:34:22;18.10;99.90
43338;DHT22;28933;52.492;13.434;2023-07-31T01:37:09;18.10;99.90
43338;DHT22;28933;52.492;13.434;2023-07-31T01:39:54;18.10;99.90
43338;DHT22;28933;52.492;13.434;2023-07-31T01:42:40;18.10;99.90
43338;DHT22;28933;52.492;13.434;2023-07-31T01:45:26;18.10;99.90
43338;DHT22;28933;52.492;13.434;2023-07-31T01:48:12;18.10;99.90
43338;DHT22;28933;52.492;13.434;2023-07-31T01:51:00;18.10;99.90
43338;DHT22;28933;52.492;13.434;2023-07-31T01:53:46;18.10;99.90
43338;DHT22;28933;52.492;13.434;2023-07-31T01:56:32;18.10;99.90
43338;DHT22;28933;52.492;13.434;2023-07-31T01:59:18;18.20;99.90
43338;DHT22;28933;52.492;13.434;2023-07-31T02:02:04;18.20;99.90
43338;DHT22;28933;52.492;13.434;2023-07-31T02:04:50;18.10;99.90
43338;DHT22;28933;52.492;13.434;2023-07-31T02:07:36;18.10;99.90
43338;DHT22;28933;52.492;13.434;2023-07-31T02:10:23;18.10;99.90
43338;DHT22;28933;52.492;13.434;2023-07-31T02:13:09;18.10;99.90
43338;DHT22;28933;52.492;13.434;2023-07-31T02:15:55;18.10;99.90
43338;DHT22;28933;52.492;13.434;2023-07-31T02:18:41;18.10;99.90
43338;DHT22;28933;52.492;13.434;2023-07-31T02:21:26;18.20;99.90
43338;DHT22;28933;52.492;13.434;2023-07-31T02:24:12;18.10;99.90
43338;DHT22;28933;52.492;13.434;2023-07-31T02:26:58;18.20;99.90
43338;DHT22;28933;52.492;13.434;2023-07-31T02:29:44;18.20;99.90
43338;DHT22;28933;52.492;13.434;2023-07-31T02:32:30;18.20;99.90
43338;DHT22;28933;52.492;13.434;2023-07-31T02:35:16;18.20;99.90
43338;DHT22;28933;52.492;13.434;2023-07-31T02:38:04;18.20;99.90
43338;DHT22;28933;52.492;13.434;2023-07-31T02:40:50;18.20;99.90
43338;DHT22;28933;52.492;13.434;2023-07-31T02:43:35;18.20;99.90
43338;DHT22;28933;52.492;13.434;2023-07-31T02:46:21;18.20;99.90
43338;DHT22;28933;52.492;13.434;2023-07-31T02:49:10;18.20;99.90
43338;DHT22;28933;52.492;13.434;2023-07-31T02:51:56;18.20;99.90
43338;DHT22;28933;52.492;13.434;2023-07-31T02:54:41;18.20;99.90
43338;DHT22;28933;52.492;13.434;2023-07-31T02:57:27;18.20;99.90
43338;DHT22;28933;52.492;13.434;2023-07-31T03:00:13;18.20;99.90
43338;DHT22;28933;52.492;13.434;2023-07-31T03:02:59;18.20;99.90
43338;DHT22;28933;52.492;13.434;2023-07-31T03:05:45;18.20;99.90
43338;DHT22;28933;52.492;13.434;2023-07-31T03:08:31;18.20;99.90
43338;DHT22;28933;52.492;13.434;2023-07-31T03:11:17;18.20;99.90
43338;DHT22;28933;52.492;13.434;2023-07-31T03:14:03;18.20;99.90
43338;DHT22;28933;52.492;13.434;2023-07-31T03:16:49;18.20;99.90
43338;DHT22;28933;52.492;13.434;2023-07-31T03:19:35;18.20;99.90
43338;DHT22;28933;52.492;13.434;2023-07-31T03:22:21;18.20;99.90
43338;DHT22;28933;52.492;13.434;2023-07-31T03:25:07;18.20;99.90
43338;DHT22;28933;52.492;13.434;2023-07-31T03:27:54;18.20;99.90
43338;DHT22;28933;52.492;13.434;2023-07-31T03:30:40;18.20;99.90
43338;DHT22;28933;52.492;13.434;2023-07-31T03:33:26;18.20;99.90
43338;DHT22;28933;52.492;13.434;2023-07-31T03:36:12;18.20;99.90
43338;DHT22;28933;52.492;13.434;2023-07-31T03:38:58;18.20;99.90
43338;DHT22;28933;52.492;13.434;2023-07-31T03:41:44;18.20;99.90
43338;DHT22;28933;52.492;13.434;2023-07-31T03:44:30;18.20;99.90
43338;DHT22;28933;52.492;13.434;2023-07-31T03:47:16;18.20;99.90
43338;DHT22;28933;52.492;13.434;2023-07-31T03:50:02;18.20;99.90
43338;DHT22;28933;52.492;13.434;2023-07-31T03:52:48;18.20;99.90
43338;DHT22;28933;52.492;13.434;2023-07-31T03:55:34;18.20;99.90
43338;DHT22;28933;52.492;13.434;2023-07-31T03:58:20;18.20;99.90
43338;DHT22;28933;52.492;13.434;2023-07-31T04:01:06;18.20;99.90
43338;DHT22;28933;52.492;13.434;2023-07-31T04:03:52;18.30;99.90
43338;DHT22;28933;52.492;13.434;2023-07-31T04:06:37;18.20;99.90
43338;DHT22;28933;52.492;13.434;2023-07-31T04:09:23;18.30;99.90
43338;DHT22;28933;52.492;13.434;2023-07-31T04:12:09;18.20;99.90
43338;DHT22;28933;52.492;13.434;2023-07-31T04:14:55;18.20;99.90
43338;DHT22;28933;52.492;13.434;2023-07-31T04:17:42;18.30;99.90
43338;DHT22;28933;52.492;13.434;2023-07-31T04:20:28;18.30;99.90
43338;DHT22;28933;52.492;13.434;2023-07-31T04:23:14;18.30;99.90
43338;DHT22;28933;52.492;13.434;2023-07-31T04:26:00;18.30;99.90
43338;DHT22;28933;52.492;13.434;2023-07-31T04:28:46;18.40;99.90
43338;DHT22;28933;52.492;13.434;2023-07-31T04:31:32;18.30;99.90
43338;DHT22;28933;52.492;13.434;2023-07-31T04:34:17;18.40;99.90
43338;DHT22;28933;52.492;13.434;2023-07-31T04:37:03;18.40;99.90
43338;DHT22;28933;52.492;13.434;2023-07-31T04:39:49;18.40;99.90
43338;DHT22;28933;52.492;13.434;2023-07-31T04:42:35;18.40;99.90
43338;DHT22;28933;52.492;13.434;2023-07-31T04:45:21;18.40;99.90
43338;DHT22;28933;52.492;13.434;2023-07-31T04:48:07;18.40;99.90
43338;DHT22;28933;52.492;13.434;2023-07-31T04:50:53;18.40;99.90
43338;DHT22;28933;52.492;13.434;2023-07-31T04:53:39;18.40;99.90
43338;DHT22;28933;52.492;13.434;2023-07-31T04:56:25;18.40;99.90
43338;DHT22;28933;52.492;13.434;2023-07-31T04:59:11;18.50;99.90
43338;DHT22;28933;52.492;13.434;2023-07-31T05:01:57;18.50;99.90
43338;DHT22;28933;52.492;13.434;2023-07-31T05:04:43;18.50;99.90
43338;DHT22;28933;52.492;13.434;2023-07-31T05:07:29;18.40;99.90
43338;DHT22;28933;52.492;13.434;2023-07-31T05:10:15;18.50;99.90
43338;DHT22;28933;52.492;13.434;2023-07-31T05:13:01;18.50;99.90
43338;DHT22;28933;52.492;13.434;2023-07-31T05:15:47;18.50;99.90
43338;DHT22;28933;52.492;13.434;2023-07-31T05:18:35;18.60;99.90
43338;DHT22;28933;52.492;13.434;2023-07-31T05:21:21;18.60;99.90
43338;DHT22;28933;52.492;13.434;2023-07-31T05:24:06;18.70;99.90
43338;DHT22;28933;52.492;13.434;2023-07-31T05:26:52;18.80;99.90
43338;DHT22;28933;52.492;13.434;2023-07-31T05:29:38;18.80;99.90
43338;DHT22;28933;52.492;13.434;2023-07-31T05:32:26;18.80;99.90
43338;DHT22;28933;52.492;13.434;2023-07-31T05:35:12;18.90;99.90
43338;DHT22;28933;52.492;13.434;2023-07-31T05:37:57;18.90;99.90
43338;DHT22;28933;52.492;13.434;2023-07-31T05:40:43;18.90;99.90
43338;DHT22;28933;52.492;13.434;2023-07-31T05:43:29;18.90;99.90
43338;DHT22;28933;52.492;13.434;2023-07-31T05:46:15;18.90;99.90
43338;DHT22;28933;52.492;13.434;2023-07-31T05:49:01;19.00;99.90
43338;DHT22;28933;52.492;13.434;2023-07-31T05:51:47;19.00;99.90
43338;DHT22;28933;52.492;13.434;2023-07-31T05:54:33;19.00;99.90
43338;DHT22;28933;52.492;13.434;2023-07-31T05:57:19;19.00;99.90
43338;DHT22;28933;52.492;13.434;2023-07-31T06:00:06;19.10;99.90
43338;DHT22;28933;52.492;13.434;2023-07-31T06:02:52;19.10;99.90
43338;DHT22;28933;52.492;13.434;2023-07-31T06:05:38;19.10;99.90
43338;DHT22;28933;52.492;13.434;2023-07-31T06:08:24;19.10;99.90
43338;DHT22;28933;52.492;13.434;2023-07-31T06:11:10;19.10;99.90
43338;DHT22;28933;52.492;13.434;2023-07-31T06:13:56;19.10;99.90
43338;DHT22;28933;52.492;13.434;2023-07-31T06:16:42;19.20;99.90
43338;DHT22;28933;52.492;13.434;2023-07-31T06:19:29;19.20;99.90
43338;DHT22;28933;52.492;13.434;2023-07-31T06:22:15;19.20;99.90
43338;DHT22;28933;52.492;13.434;2023-07-31T06:25:01;19.30;99.90
43338;DHT22;28933;52.492;13.434;2023-07-31T06:27:47;19.30;99.90
43338;DHT22;28933;52.492;13.434;2023-07-31T06:30:33;19.30;99.90
43338;DHT22;28933;52.492;13.434;2023-07-31T06:33:19;19.30;99.90
43338;DHT22;28933;52.492;13.434;2023-07-31T06:36:05;19.40;99.90
43338;DHT22;28933;52.492;13.434;2023-07-31T06:38:51;19.40;99.90
43338;DHT22;28933;52.492;13.434;2023-07-31T06:41:38;19.50;99.90
43338;DHT22;28933;52.492;13.434;2023-07-31T06:44:24;19.50;99.90
43338;DHT22;28933;52.492;13.434;2023-07-31T06:47:10;19.60;99.90
43338;DHT22;28933;52.492;13.434;2023-07-31T06:49:56;19.70;99.90
43338;DHT22;28933;52.492;13.434;2023-07-31T06:52:42;19.70;99.90
43338;DHT22;28933;52.492;13.434;2023-07-31T06:55:28;19.80;99.90
43338;DHT22;28933;52.492;13.434;2023-07-31T06:58:14;19.80;99.90
43338;DHT22;28933;52.492;13.434;2023-07-31T07:01:00;19.90;99.90
43338;DHT22;28933;52.492;13.434;2023-07-31T07:03:45;19.90;99.90
43338;DHT22;28933;52.492;13.434;2023-07-31T07:06:31;19.90;99.90
43338;DHT22;28933;52.492;13.434;2023-07-31T07:09:17;19.90;99.90
43338;DHT22;28933;52.492;13.434;2023-07-31T07:12:03;20.00;99.90
43338;DHT22;28933;52.492;13.434;2023-07-31T07:14:49;19.90;99.90
43338;DHT22;28933;52.492;13.434;2023-07-31T07:17:35;20.00;99.90
43338;DHT22;28933;52.492;13.434;2023-07-31T07:20:22;20.00;99.90
43338;DHT22;28933;52.492;13.434;2023-07-31T07:23:08;20.00;99.90
43338;DHT22;28933;52.492;13.434;2023-07-31T07:25:54;20.00;99.90
43338;DHT22;28933;52.492;13.434;2023-07-31T07:28:40;20.00;99.90
43338;DHT22;28933;52.492;13.434;2023-07-31T07:31:26;20.00;99.90
43338;DHT22;28933;52.492;13.434;2023-07-31T07:34:12;20.10;99.90
43338;DHT22;28933;52.492;13.434;2023-07-31T07:36:58;20.20;99.90
43338;DHT22;28933;52.492;13.434;2023-07-31T07:39:44;20.40;99.90
43338;DHT22;28933;52.492;13.434;2023-07-31T07:42:30;20.40;99.90
43338;DHT22;28933;52.492;13.434;2023-07-31T07:45:16;20.60;99.90
43338;DHT22;28933;52.492;13.434;2023-07-31T07:48:02;20.60;99.90
43338;DHT22;28933;52.492;13.434;2023-07-31T07:50:49;20.70;99.90
43338;DHT22;28933;52.492;13.434;2023-07-31T07:53:34;20.90;99.90
43338;DHT22;28933;52.492;13.434;2023-07-31T07:56:20;21.00;99.90
43338;DHT22;28933;52.492;13.434;2023-07-31T07:59:06;21.00;99.90
43338;DHT22;28933;52.492;13.434;2023-07-31T08:01:52;21.00;99.90
43338;DHT22;28933;52.492;13.434;2023-07-31T08:04:39;21.00;99.90
43338;DHT22;28933;52.492;13.434;2023-07-31T08:07:25;21.00;99.90
43338;DHT22;28933;52.492;13.434;2023-07-31T08:10:11;21.00;99.90
43338;DHT22;28933;52.492;13.434;2023-07-31T08:12:57;21.00;99.90
43338;DHT22;28933;52.492;13.434;2023-07-31T08:15:43;21.00;99.90
43338;DHT22;28933;52.492;13.434;2023-07-31T08:18:30;21.00;99.90
43338;DHT22;28933;52.492;13.434;2023-07-31T08:21:16;21.00;99.90
43338;DHT22;28933;52.492;13.434;2023-07-31T08:24:02;20.90;99.90
43338;DHT22;28933;52.492;13.434;2023-07-31T08:26:48;20.90;99.90
43338;DHT22;28933;52.492;13.434;2023-07-31T08:29:34;20.90;99.90
43338;DHT22;28933;52.492;13.434;2023-07-31T08:32:20;20.90;99.90
43338;DHT22;28933;52.492;13.434;2023-07-31T08:35:06;21.00;99.90
43338;DHT22;28933;52.492;13.434;2023-07-31T08:37:52;21.10;99.90
43338;DHT22;28933;52.492;13.434;2023-07-31T08:40:38;21.10;99.90
43338;DHT22;28933;52.492;13.434;2023-07-31T08:43:26;21.20;99.90
43338;DHT22;28933;52.492;13.434;2023-07-31T08:46:12;21.20;99.90
43338;DHT22;28933;52.492;13.434;2023-07-31T08:49:00;21.10;99.90
43338;DHT22;28933;52.492;13.434;2023-07-31T08:51:50;21.10;99.90
43338;DHT22;28933;52.492;13.434;2023-07-31T08:54:38;21.20;99.90
43338;DHT22;28933;52.492;13.434;2023-07-31T08:57:23;21.20;99.90
43338;DHT22;28933;52.492;13.434;2023-07-31T09:00:11;21.20;99.90
43338;DHT22;28933;52.492;13.434;2023-07-31T09:03:02;21.30;99.90
43338;DHT22;28933;52.492;13.434;2023-07-31T09:05:50;21.40;99.90
43338;DHT22;28933;52.492;13.434;2023-07-31T09:08:37;21.30;99.90
43338;DHT22;28933;52.492;13.434;2023-07-31T09:11:26;21.40;99.90
43338;DHT22;28933;52.492;13.434;2023-07-31T09:14:13;21.40;99.90
43338;DHT22;28933;52.492;13.434;2023-07-31T09:17:00;21.50;99.90
43338;DHT22;28933;52.492;13.434;2023-07-31T09:19:45;21.60;99.90
43338;DHT22;28933;52.492;13.434;2023-07-31T09:22:35;21.60;99.90
43338;DHT22;28933;52.492;13.434;2023-07-31T09:25:26;21.60;99.90
43338;DHT22;28933;52.492;13.434;2023-07-31T09:28:12;21.60;99.90
43338;DHT22;28933;52.492;13.434;2023-07-31T09:30:58;21.60;99.90
43338;DHT22;28933;52.492;13.434;2023-07-31T09:33:56;21.60;99.90
43338;DHT22;28933;52.492;13.434;2023-07-31T09:39:29;21.40;99.90
43338;DHT22;28933;52.492;13.434;2023-07-31T09:42:25;21.30;99.90
43338;DHT22;28933;52.492;13.434;2023-07-31T09:45:12;21.20;99.90
43338;DHT22;28933;52.492;13.434;2023-07-31T09:48:00;21.10;99.90
43338;DHT22;28933;52.492;13.434;2023-07-31T09:50:47;21.10;99.90
43338;DHT22;28933;52.492;13.434;2023-07-31T09:53:34;21.00;99.90
43338;DHT22;28933;52.492;13.434;2023-07-31T09:56:21;21.00;99.90
43338;DHT22;28933;52.492;13.434;2023-07-31T09:59:11;21.00;99.90
43338;DHT22;28933;52.492;13.434;2023-07-31T10:01:57;21.00;99.90
43338;DHT22;28933;52.492;13.434;2023-07-31T10:04:44;21.00;99.90
43338;DHT22;28933;52.492;13.434;2023-07-31T10:07:33;21.10;99.90
43338;DHT22;28933;52.492;13.434;2023-07-31T10:10:21;21.10;99.90
43338;DHT22;28933;52.492;13.434;2023-07-31T10:13:07;21.20;99.90
43338;DHT22;28933;52.492;13.434;2023-07-31T10:15:54;21.20;99.90
43338;DHT22;28933;52.492;13.434;2023-07-31T10:18:44;21.40;99.90
43338;DHT22;28933;52.492;13.434;2023-07-31T10:21:31;21.50;99.90
43338;DHT22;28933;52.492;13.434;2023-07-31T10:24:21;21.50;99.90
43338;DHT22;28933;52.492;13.434;2023-07-31T10:27:07;21.50;99.90
43338;DHT22;28933;52.492;13.434;2023-07-31T10:29:55;21.50;99.90
43338;DHT22;28933;52.492;13.434;2023-07-31T10:32:43;21.40;99.90
43338;DHT22;28933;52.492;13.434;2023-07-31T10:35:30;21.40;99.90
43338;DHT22;28933;52.492;13.434;2023-07-31T10:38:16;21.40;99.90
43338;DHT22;28933;52.492;13.434;2023-07-31T10:41:08;21.50;99.90
43338;DHT22;28933;52.492;13.434;2023-07-31T10:44:00;21.60;99.90
43338;DHT22;28933;52.492;13.434;2023-07-31T10:46:46;21.80;99.90
43338;DHT22;28933;52.492;13.434;2023-07-31T10:49:32;21.90;99.90
43338;DHT22;28933;52.492;13.434;2023-07-31T10:52:21;22.10;99.90
43338;DHT22;28933;52.492;13.434;2023-07-31T10:55:16;22.30;99.90
43338;DHT22;28933;52.492;13.434;2023-07-31T11:00:56;22.60;99.90
43338;DHT22;28933;52.492;13.434;2023-07-31T11:03:47;22.80;99.90
43338;DHT22;28933;52.492;13.434;2023-07-31T11:06:36;22.90;99.90
43338;DHT22;28933;52.492;13.434;2023-07-31T11:09:22;23.00;99.90
43338;DHT22;28933;52.492;13.434;2023-07-31T11:12:08;23.20;99.90
43338;DHT22;28933;52.492;13.434;2023-07-31T11:14:56;23.30;99.90
43338;DHT22;28933;52.492;13.434;2023-07-31T11:17:42;23.30;99.90
43338;DHT22;28933;52.492;13.434;2023-07-31T11:20:32;23.30;99.90
43338;DHT22;28933;52.492;13.434;2023-07-31T11:23:19;23.30;99.90
43338;DHT22;28933;52.492;13.434;2023-07-31T11:26:06;23.30;99.60
43338;DHT22;28933;52.492;13.434;2023-07-31T11:28:52;23.40;99.30
43338;DHT22;28933;52.492;13.434;2023-07-31T11:31:45;23.40;98.90
43338;DHT22;28933;52.492;13.434;2023-07-31T11:34:32;23.40;98.60
43338;DHT22;28933;52.492;13.434;2023-07-31T11:37:18;23.40;98.70
43338;DHT22;28933;52.492;13.434;2023-07-31T11:40:04;23.50;98.60
43338;DHT22;28933;52.492;13.434;2023-07-31T11:42:50;23.50;98.30
43338;DHT22;28933;52.492;13.434;2023-07-31T11:45:37;23.50;98.00
43338;DHT22;28933;52.492;13.434;2023-07-31T11:48:30;23.50;98.10
43338;DHT22;28933;52.492;13.434;2023-07-31T11:51:16;23.50;97.50
43338;DHT22;28933;52.492;13.434;2023-07-31T11:54:02;23.50;97.40
43338;DHT22;28933;52.492;13.434;2023-07-31T11:56:48;23.40;97.40
43338;DHT22;28933;52.492;13.434;2023-07-31T11:59:35;23.40;97.10
43338;DHT22;28933;52.492;13.434;2023-07-31T12:02:21;23.40;97.30
43338;DHT22;28933;52.492;13.434;2023-07-31T12:05:14;23.30;97.30
43338;DHT22;28933;52.492;13.434;2023-07-31T12:08:00;23.30;97.20
43338;DHT22;28933;52.492;13.434;2023-07-31T12:10:46;23.20;97.20
43338;DHT22;28933;52.492;13.434;2023-07-31T12:13:33;23.20;97.20
43338;DHT22;28933;52.492;13.434;2023-07-31T12:16:19;23.20;97.20
43338;DHT22;28933;52.492;13.434;2023-07-31T12:19:07;23.30;97.10
43338;DHT22;28933;52.492;13.434;2023-07-31T12:21:53;23.40;97.10
43338;DHT22;28933;52.492;13.434;2023-07-31T12:24:40;23.40;97.00
43338;DHT22;28933;52.492;13.434;2023-07-31T12:27:32;23.50;96.90
43338;DHT22;28933;52.492;13.434;2023-07-31T12:30:34;23.50;96.70
43338;DHT22;28933;52.492;13.434;2023-07-31T12:33:20;23.50;96.70
43338;DHT22;28933;52.492;13.434;2023-07-31T12:36:12;23.60;96.40
43338;DHT22;28933;52.492;13.434;2023-07-31T12:38:58;23.70;96.30
43338;DHT22;28933;52.492;13.434;2023-07-31T12:41:44;23.90;96.20
43338;DHT22;28933;52.492;13.434;2023-07-31T12:44:30;23.90;96.00
43338;DHT22;28933;52.492;13.434;2023-07-31T12:47:16;24.00;96.00
43338;DHT22;28933;52.492;13.434;2023-07-31T12:50:02;24.00;95.90
43338;DHT22;28933;52.492;13.434;2023-07-31T12:52:48;24.10;95.90
43338;DHT22;28933;52.492;13.434;2023-07-31T12:55:34;24.10;95.90
43338;DHT22;28933;52.492;13.434;2023-07-31T12:58:20;24.10;95.80
43338;DHT22;28933;52.492;13.434;2023-07-31T13:01:06;24.10;95.90
43338;DHT22;28933;52.492;13.434;2023-07-31T13:03:52;24.10;95.90
43338;DHT22;28933;52.492;13.434;2023-07-31T13:06:38;24.00;95.70
43338;DHT22;28933;52.492;13.434;2023-07-31T13:09:24;24.00;95.50
43338;DHT22;28933;52.492;13.434;2023-07-31T13:12:10;24.00;95.40
43338;DHT22;28933;52.492;13.434;2023-07-31T13:14:56;23.90;95.40
43338;DHT22;28933;52.492;13.434;2023-07-31T13:17:42;23.80;95.40
43338;DHT22;28933;52.492;13.434;2023-07-31T13:20:28;23.80;95.60
43338;DHT22;28933;52.492;13.434;2023-07-31T13:23:13;23.80;95.50
43338;DHT22;28933;52.492;13.434;2023-07-31T13:25:59;23.80;95.50
43338;DHT22;28933;52.492;13.434;2023-07-31T13:28:45;23.70;95.50
43338;DHT22;28933;52.492;13.434;2023-07-31T13:31:31;23.70;95.60
43338;DHT22;28933;52.492;13.434;2023-07-31T13:34:17;23.60;95.70
43338;DHT22;28933;52.492;13.434;2023-07-31T13:37:03;23.60;95.80
43338;DHT22;28933;52.492;13.434;2023-07-31T13:39:51;23.70;95.90
43338;DHT22;28933;52.492;13.434;2023-07-31T13:42:37;23.70;96.00
43338;DHT22;28933;52.492;13.434;2023-07-31T13:45:23;23.90;96.10
43338;DHT22;28933;52.492;13.434;2023-07-31T13:48:09;24.00;96.00
43338;DHT22;28933;52.492;13.434;2023-07-31T13:50:55;24.10;95.80
43338;DHT22;28933;52.492;13.434;2023-07-31T13:53:41;24.20;95.60
43338;DHT22;28933;52.492;13.434;2023-07-31T13:56:27;24.20;95.60
43338;DHT22;28933;52.492;13.434;2023-07-31T13:59:13;24.30;95.50
43338;DHT22;28933;52.492;13.434;2023-07-31T14:02:02;24.30;95.50
43338;DHT22;28933;52.492;13.434;2023-07-31T14:04:48;24.30;95.10
43338;DHT22;28933;52.492;13.434;2023-07-31T14:07:34;24.20;95.20
43338;DHT22;28933;52.492;13.434;2023-07-31T14:10:20;24.20;95.20
43338;DHT22;28933;52.492;13.434;2023-07-31T14:13:06;24.20;95.20
43338;DHT22;28933;52.492;13.434;2023-07-31T14:15:52;24.20;95.00
43338;DHT22;28933;52.492;13.434;2023-07-31T14:18:38;24.20;95.10
43338;DHT22;28933;52.492;13.434;2023-07-31T14:21:25;24.20;95.30
43338;DHT22;28933;52.492;13.434;2023-07-31T14:24:11;24.20;95.30
43338;DHT22;28933;52.492;13.434;2023-07-31T14:26:57;24.20;95.30
43338;DHT22;28933;52.492;13.434;2023-07-31T14:29:43;24.20;95.20
43338;DHT22;28933;52.492;13.434;2023-07-31T14:32:29;24.10;95.10
43338;DHT22;28933;52.492;13.434;2023-07-31T14:35:15;24.10;95.20
43338;DHT22;28933;52.492;13.434;2023-07-31T14:38:01;24.00;95.30
43338;DHT22;28933;52.492;13.434;2023-07-31T14:40:47;24.00;95.30
43338;DHT22;28933;52.492;13.434;2023-07-31T14:43:33;24.10;95.30
43338;DHT22;28933;52.492;13.434;2023-07-31T14:46:19;24.00;95.10
43338;DHT22;28933;52.492;13.434;2023-07-31T14:49:06;24.10;95.00
43338;DHT22;28933;52.492;13.434;2023-07-31T14:51:52;24.00;95.00
43338;DHT22;28933;52.492;13.434;2023-07-31T14:54:38;24.00;94.90
43338;DHT22;28933;52.492;13.434;2023-07-31T14:57:24;24.00;94.90
43338;DHT22;28933;52.492;13.434;2023-07-31T15:00:10;24.00;94.80
43338;DHT22;28933;52.492;13.434;2023-07-31T15:02:56;23.90;94.90
43338;DHT22;28933;52.492;13.434;2023-07-31T15:05:42;23.90;95.00
43338;DHT22;28933;52.492;13.434;2023-07-31T15:08:29;23.80;94.90
43338;DHT22;28933;52.492;13.434;2023-07-31T15:11:15;23.70;94.80
43338;DHT22;28933;52.492;13.434;2023-07-31T15:14:01;23.70;94.90
43338;DHT22;28933;52.492;13.434;2023-07-31T15:16:48;23.70;95.00
43338;DHT22;28933;52.492;13.434;2023-07-31T15:19:34;23.60;94.90
43338;DHT22;28933;52.492;13.434;2023-07-31T15:22:22;23.50;95.00
43338;DHT22;28933;52.492;13.434;2023-07-31T15:25:08;23.50;95.20
43338;DHT22;28933;52.492;13.434;2023-07-31T15:27:54;23.40;95.40
43338;DHT22;28933;52.492;13.434;2023-07-31T15:30:41;23.40;95.60
43338;DHT22;28933;52.492;13.434;2023-07-31T15:33:27;23.40;96.10
43338;DHT22;28933;52.492;13.434;2023-07-31T15:36:12;23.40;95.90
43338;DHT22;28933;52.492;13.434;2023-07-31T15:38:59;23.40;96.00
43338;DHT22;28933;52.492;13.434;2023-07-31T15:41:45;23.40;96.30
43338;DHT22;28933;52.492;13.434;2023-07-31T15:44:31;23.40;96.30
43338;DHT22;28933;52.492;13.434;2023-07-31T15:47:17;23.40;96.40
43338;DHT22;28933;52.492;13.434;2023-07-31T15:50:03;23.40;96.60
43338;DHT22;28933;52.492;13.434;2023-07-31T15:52:49;23.50;96.80
43338;DHT22;28933;52.492;13.434;2023-07-31T15:55:35;23.50;97.10
43338;DHT22;28933;52.492;13.434;2023-07-31T15:58:21;23.40;97.10
43338;DHT22;28933;52.492;13.434;2023-07-31T16:01:08;23.40;97.30
43338;DHT22;28933;52.492;13.434;2023-07-31T16:03:54;23.40;97.50
43338;DHT22;28933;52.492;13.434;2023-07-31T16:06:40;23.30;97.60
43338;DHT22;28933;52.492;13.434;2023-07-31T16:09:25;23.30;97.60
43338;DHT22;28933;52.492;13.434;2023-07-31T16:12:11;23.20;97.70
43338;DHT22;28933;52.492;13.434;2023-07-31T16:14:58;23.20;97.80
43338;DHT22;28933;52.492;13.434;2023-07-31T16:17:44;23.20;98.20
43338;DHT22;28933;52.492;13.434;2023-07-31T16:20:30;23.10;98.00
43338;DHT22;28933;52.492;13.434;2023-07-31T16:23:16;23.00;98.10
43338;DHT22;28933;52.492;13.434;2023-07-31T16:26:02;23.00;98.20
43338;DHT22;28933;52.492;13.434;2023-07-31T16:28:48;22.90;97.90
43338;DHT22;28933;52.492;13.434;2023-07-31T16:31:34;22.90;97.80
43338;DHT22;28933;52.492;13.434;2023-07-31T16:34:20;22.90;97.70
43338;DHT22;28933;52.492;13.434;2023-07-31T16:37:06;22.90;97.50
43338;DHT22;28933;52.492;13.434;2023-07-31T16:39:52;22.80;97.40
43338;DHT22;28933;52.492;13.434;2023-07-31T16:42:38;22.80;97.40
43338;DHT22;28933;52.492;13.434;2023-07-31T16:45:24;22.80;97.30
43338;DHT22;28933;52.492;13.434;2023-07-31T16:48:10;22.80;97.20
43338;DHT22;28933;52.492;13.434;2023-07-31T16:50:56;22.70;97.10
43338;DHT22;28933;52.492;13.434;2023-07-31T16:53:41;22.70;97.00
43338;DHT22;28933;52.492;13.434;2023-07-31T16:56:29;22.70;97.00
43338;DHT22;28933;52.492;13.434;2023-07-31T16:59:17;22.70;96.80
43338;DHT22;28933;52.492;13.434;2023-07-31T17:02:03;22.70;96.80
43338;DHT22;28933;52.492;13.434;2023-07-31T17:04:49;22.70;96.80
43338;DHT22;28933;52.492;13.434;2023-07-31T17:07:35;22.70;96.90
43338;DHT22;28933;52.492;13.434;2023-07-31T17:10:21;22.70;96.80
43338;DHT22;28933;52.492;13.434;2023-07-31T17:13:07;22.70;96.80
43338;DHT22;28933;52.492;13.434;2023-07-31T17:15:52;22.70;96.80
43338;DHT22;28933;52.492;13.434;2023-07-31T17:18:38;22.70;96.80
43338;DHT22;28933;52.492;13.434;2023-07-31T17:21:26;22.70;96.80
43338;DHT22;28933;52.492;13.434;2023-07-31T17:24:12;22.70;96.80
43338;DHT22;28933;52.492;13.434;2023-07-31T17:26:58;22.70;96.80